sensor_id;sensor_type;location;lat;lon;timestamp;P1;durP1;ratioP1;P2;durP2;ratioP2
70213;SDS011;60138;55.808;37.078;2023-05-20T00:00:29;4.97;;;2.55;;
70213;SDS011;60138;55.808;37.078;2023-05-20T00:02:55;7.43;;;3.03;;
70213;SDS011;60138;55.808;37.078;2023-05-20T00:05:20;5.70;;;2.70;;
70213;SDS011;60138;55.808;37.078;2023-05-20T00:07:46;6.50;;;3.42;;
70213;SDS011;60138;55.808;37.078;2023-05-20T00:10:12;5.57;;;3.03;;
70213;SDS011;60138;55.808;37.078;2023-05-20T00:12:38;5.00;;;2.72;;
70213;SDS011;60138;55.808;37.078;2023-05-20T00:15:04;4.33;;;2.67;;
70213;SDS011;60138;55.808;37.078;2023-05-20T00:17:32;5.93;;;3.25;;
70213;SDS011;60138;55.808;37.078;2023-05-20T00:19:57;3.43;;;2.50;;
70213;SDS011;60138;55.808;37.078;2023-05-20T00:22:23;8.30;;;3.25;;
70213;SDS011;60138;55.808;37.078;2023-05-20T00:24:49;5.70;;;2.50;;
70213;SDS011;60138;55.808;37.078;2023-05-20T00:27:14;5.80;;;3.10;;
70213;SDS011;60138;55.808;37.078;2023-05-20T00:29:40;4.47;;;2.80;;
70213;SDS011;60138;55.808;37.078;2023-05-20T00:32:06;3.72;;;2.50;;
70213;SDS011;60138;55.808;37.078;2023-05-20T00:34:32;5.43;;;2.60;;
70213;SDS011;60138;55.808;37.078;2023-05-20T00:36:58;5.43;;;3.13;;
70213;SDS011;60138;55.808;37.078;2023-05-20T00:39:24;7.90;;;3.33;;
70213;SDS011;60138;55.808;37.078;2023-05-20T00:41:49;5.27;;;3.40;;
70213;SDS011;60138;55.808;37.078;2023-05-20T00:44:15;5.03;;;3.25;;
70213;SDS011;60138;55.808;37.078;2023-05-20T00:46:41;5.97;;;3.03;;
70213;SDS011;60138;55.808;37.078;2023-05-20T00:49:07;6.03;;;2.83;;
70213;SDS011;60138;55.808;37.078;2023-05-20T00:51:32;6.03;;;2.70;;
70213;SDS011;60138;55.808;37.078;2023-05-20T00:53:58;4.68;;;2.63;;
70213;SDS011;60138;55.808;37.078;2023-05-20T00:56:24;8.10;;;2.75;;
70213;SDS011;60138;55.808;37.078;2023-05-20T00:58:50;6.68;;;3.00;;
70213;SDS011;60138;55.808;37.078;2023-05-20T01:01:16;4.95;;;2.97;;
70213;SDS011;60138;55.808;37.078;2023-05-20T01:03:42;9.63;;;2.83;;
70213;SDS011;60138;55.808;37.078;2023-05-20T01:06:08;6.45;;;2.92;;
70213;SDS011;60138;55.808;37.078;2023-05-20T01:08:34;5.07;;;2.80;;
70213;SDS011;60138;55.808;37.078;2023-05-20T01:13:35;5.07;;;2.70;;
70213;SDS011;60138;55.808;37.078;2023-05-20T01:16:07;5.77;;;3.77;;
70213;SDS011;60138;55.808;37.078;2023-05-20T01:18:35;4.28;;;2.72;;
70213;SDS011;60138;55.808;37.078;2023-05-20T01:21:03;4.10;;;2.97;;
70213;SDS011;60138;55.808;37.078;2023-05-20T01:23:31;4.70;;;2.55;;
70213;SDS011;60138;55.808;37.078;2023-05-20T01:26:08;5.18;;;3.15;;
70213;SDS011;60138;55.808;37.078;2023-05-20T01:28:34;11.93;;;4.10;;
70213;SDS011;60138;55.808;37.078;2023-05-20T01:31:01;4.72;;;3.13;;
70213;SDS011;60138;55.808;37.078;2023-05-20T01:33:29;4.70;;;2.35;;
70213;SDS011;60138;55.808;37.078;2023-05-20T01:35:56;3.92;;;2.25;;
70213;SDS011;60138;55.808;37.078;2023-05-20T01:38:22;5.35;;;2.50;;
70213;SDS011;60138;55.808;37.078;2023-05-20T01:40:49;5.27;;;2.47;;
70213;SDS011;60138;55.808;37.078;2023-05-20T01:43:16;4.80;;;2.70;;
70213;SDS011;60138;55.808;37.078;2023-05-20T01:45:42;4.72;;;2.45;;
70213;SDS011;60138;55.808;37.078;2023-05-20T01:48:09;3.72;;;2.30;;
70213;SDS011;60138;55.808;37.078;2023-05-20T01:50:35;3.33;;;2.17;;
70213;SDS011;60138;55.808;37.078;2023-05-20T01:53:02;3.40;;;2.38;;
70213;SDS011;60138;55.808;37.078;2023-05-20T01:55:27;4.63;;;2.45;;
70213;SDS011;60138;55.808;37.078;2023-05-20T01:57:53;3.15;;;2.60;;
70213;SDS011;60138;55.808;37.078;2023-05-20T02:00:19;7.68;;;3.03;;
70213;SDS011;60138;55.808;37.078;2023-05-20T02:02:45;4.28;;;2.60;;
70213;SDS011;60138;55.808;37.078;2023-05-20T02:05:12;4.63;;;2.28;;
70213;SDS011;60138;55.808;37.078;2023-05-20T02:07:40;4.40;;;2.25;;
70213;SDS011;60138;55.808;37.078;2023-05-20T02:10:06;3.00;;;2.30;;
70213;SDS011;60138;55.808;37.078;2023-05-20T02:12:35;3.63;;;2.67;;
70213;SDS011;60138;55.808;37.078;2023-05-20T02:15:01;3.83;;;2.33;;
70213;SDS011;60138;55.808;37.078;2023-05-20T02:17:32;4.72;;;3.22;;
70213;SDS011;60138;55.808;37.078;2023-05-20T02:20:18;5.50;;;2.80;;
70213;SDS011;60138;55.808;37.078;2023-05-20T02:22:44;3.20;;;1.90;;
70213;SDS011;60138;55.808;37.078;2023-05-20T02:25:10;3.80;;;2.50;;
70213;SDS011;60138;55.808;37.078;2023-05-20T02:27:36;4.90;;;2.90;;
70213;SDS011;60138;55.808;37.078;2023-05-20T02:30:02;5.00;;;2.88;;
70213;SDS011;60138;55.808;37.078;2023-05-20T02:32:31;3.63;;;2.58;;
70213;SDS011;60138;55.808;37.078;2023-05-20T02:34:58;3.00;;;2.07;;
70213;SDS011;60138;55.808;37.078;2023-05-20T02:37:24;5.90;;;2.42;;
70213;SDS011;60138;55.808;37.078;2023-05-20T02:39:49;5.77;;;3.10;;
70213;SDS011;60138;55.808;37.078;2023-05-20T02:42:15;3.33;;;2.28;;
70213;SDS011;60138;55.808;37.078;2023-05-20T02:44:41;3.30;;;2.20;;
70213;SDS011;60138;55.808;37.078;2023-05-20T02:47:06;3.92;;;2.08;;
70213;SDS011;60138;55.808;37.078;2023-05-20T02:49:32;4.47;;;2.60;;
70213;SDS011;60138;55.808;37.078;2023-05-20T02:51:58;6.15;;;2.53;;
70213;SDS011;60138;55.808;37.078;2023-05-20T02:54:24;3.55;;;2.50;;
70213;SDS011;60138;55.808;37.078;2023-05-20T02:56:50;4.93;;;1.80;;
70213;SDS011;60138;55.808;37.078;2023-05-20T02:59:16;3.33;;;2.28;;
70213;SDS011;60138;55.808;37.078;2023-05-20T03:01:42;4.00;;;2.20;;
70213;SDS011;60138;55.808;37.078;2023-05-20T03:04:08;5.03;;;2.70;;
70213;SDS011;60138;55.808;37.078;2023-05-20T03:06:35;2.92;;;2.20;;
70213;SDS011;60138;55.808;37.078;2023-05-20T03:09:10;4.28;;;2.53;;
70213;SDS011;60138;55.808;37.078;2023-05-20T03:11:35;8.23;;;3.57;;
70213;SDS011;60138;55.808;37.078;2023-05-20T03:14:02;5.22;;;2.90;;
70213;SDS011;60138;55.808;37.078;2023-05-20T03:16:30;3.78;;;2.15;;
70213;SDS011;60138;55.808;37.078;2023-05-20T03:18:57;5.78;;;2.88;;
70213;SDS011;60138;55.808;37.078;2023-05-20T03:21:22;3.47;;;2.47;;
70213;SDS011;60138;55.808;37.078;2023-05-20T03:23:48;6.90;;;2.23;;
70213;SDS011;60138;55.808;37.078;2023-05-20T03:26:14;3.95;;;2.05;;
70213;SDS011;60138;55.808;37.078;2023-05-20T03:28:40;4.55;;;2.05;;
70213;SDS011;60138;55.808;37.078;2023-05-20T03:31:06;3.70;;;2.72;;
70213;SDS011;60138;55.808;37.078;2023-05-20T03:33:33;3.03;;;2.35;;
70213;SDS011;60138;55.808;37.078;2023-05-20T03:35:59;5.43;;;2.30;;
70213;SDS011;60138;55.808;37.078;2023-05-20T03:38:25;7.32;;;2.40;;
70213;SDS011;60138;55.808;37.078;2023-05-20T03:40:51;5.28;;;2.42;;
70213;SDS011;60138;55.808;37.078;2023-05-20T03:43:17;8.65;;;2.17;;
70213;SDS011;60138;55.808;37.078;2023-05-20T03:45:43;4.23;;;2.00;;
70213;SDS011;60138;55.808;37.078;2023-05-20T03:48:09;3.47;;;2.00;;
70213;SDS011;60138;55.808;37.078;2023-05-20T03:50:35;5.17;;;2.27;;
70213;SDS011;60138;55.808;37.078;2023-05-20T03:53:01;8.40;;;2.92;;
70213;SDS011;60138;55.808;37.078;2023-05-20T03:55:32;4.75;;;2.83;;
70213;SDS011;60138;55.808;37.078;2023-05-20T03:57:58;5.68;;;3.10;;
70213;SDS011;60138;55.808;37.078;2023-05-20T04:00:26;9.40;;;2.97;;
70213;SDS011;60138;55.808;37.078;2023-05-20T04:02:52;3.75;;;2.25;;
70213;SDS011;60138;55.808;37.078;2023-05-20T04:05:19;3.28;;;2.40;;
70213;SDS011;60138;55.808;37.078;2023-05-20T04:07:46;4.60;;;2.23;;
70213;SDS011;60138;55.808;37.078;2023-05-20T04:10:12;4.32;;;2.03;;
70213;SDS011;60138;55.808;37.078;2023-05-20T04:12:38;3.45;;;2.20;;
70213;SDS011;60138;55.808;37.078;2023-05-20T04:15:05;5.20;;;2.42;;
70213;SDS011;60138;55.808;37.078;2023-05-20T04:17:39;3.40;;;2.03;;
70213;SDS011;60138;55.808;37.078;2023-05-20T04:20:05;3.75;;;2.22;;
70213;SDS011;60138;55.808;37.078;2023-05-20T04:22:33;5.05;;;2.03;;
70213;SDS011;60138;55.808;37.078;2023-05-20T04:24:59;5.72;;;2.60;;
70213;SDS011;60138;55.808;37.078;2023-05-20T04:27:27;4.13;;;2.50;;
70213;SDS011;60138;55.808;37.078;2023-05-20T04:29:53;5.83;;;2.57;;
70213;SDS011;60138;55.808;37.078;2023-05-20T04:32:19;5.03;;;2.58;;
70213;SDS011;60138;55.808;37.078;2023-05-20T04:34:45;3.00;;;2.35;;
70213;SDS011;60138;55.808;37.078;2023-05-20T04:37:12;4.70;;;2.83;;
70213;SDS011;60138;55.808;37.078;2023-05-20T04:39:38;3.50;;;2.70;;
70213;SDS011;60138;55.808;37.078;2023-05-20T04:42:06;7.38;;;2.40;;
70213;SDS011;60138;55.808;37.078;2023-05-20T04:44:32;5.45;;;2.17;;
70213;SDS011;60138;55.808;37.078;2023-05-20T04:46:59;4.20;;;2.20;;
70213;SDS011;60138;55.808;37.078;2023-05-20T04:49:25;3.78;;;2.33;;
70213;SDS011;60138;55.808;37.078;2023-05-20T04:51:51;7.28;;;2.70;;
70213;SDS011;60138;55.808;37.078;2023-05-20T04:54:17;4.85;;;2.25;;
70213;SDS011;60138;55.808;37.078;2023-05-20T04:56:44;5.97;;;2.42;;
70213;SDS011;60138;55.808;37.078;2023-05-20T04:59:10;3.47;;;2.43;;
70213;SDS011;60138;55.808;37.078;2023-05-20T05:01:35;11.15;;;2.47;;
70213;SDS011;60138;55.808;37.078;2023-05-20T05:04:01;5.53;;;2.47;;
70213;SDS011;60138;55.808;37.078;2023-05-20T05:06:27;4.23;;;2.30;;
70213;SDS011;60138;55.808;37.078;2023-05-20T05:08:53;5.20;;;2.55;;
70213;SDS011;60138;55.808;37.078;2023-05-20T05:11:19;5.47;;;2.40;;
70213;SDS011;60138;55.808;37.078;2023-05-20T05:13:45;4.20;;;2.40;;
70213;SDS011;60138;55.808;37.078;2023-05-20T05:16:12;4.35;;;2.30;;
70213;SDS011;60138;55.808;37.078;2023-05-20T05:18:38;3.30;;;2.38;;
70213;SDS011;60138;55.808;37.078;2023-05-20T05:21:04;8.47;;;3.23;;
70213;SDS011;60138;55.808;37.078;2023-05-20T05:23:33;8.25;;;2.15;;
70213;SDS011;60138;55.808;37.078;2023-05-20T05:25:59;5.85;;;2.10;;
70213;SDS011;60138;55.808;37.078;2023-05-20T05:28:26;5.15;;;2.65;;
70213;SDS011;60138;55.808;37.078;2023-05-20T05:30:54;8.45;;;2.42;;
70213;SDS011;60138;55.808;37.078;2023-05-20T05:33:20;8.90;;;3.80;;
70213;SDS011;60138;55.808;37.078;2023-05-20T05:35:46;7.93;;;2.20;;
70213;SDS011;60138;55.808;37.078;2023-05-20T05:38:13;9.45;;;2.15;;
70213;SDS011;60138;55.808;37.078;2023-05-20T05:40:39;4.10;;;2.22;;
70213;SDS011;60138;55.808;37.078;2023-05-20T05:43:05;3.50;;;2.30;;
70213;SDS011;60138;55.808;37.078;2023-05-20T05:45:31;6.38;;;2.65;;
70213;SDS011;60138;55.808;37.078;2023-05-20T05:47:57;6.63;;;2.20;;
70213;SDS011;60138;55.808;37.078;2023-05-20T05:50:24;7.38;;;2.38;;
70213;SDS011;60138;55.808;37.078;2023-05-20T05:52:51;4.43;;;1.70;;
70213;SDS011;60138;55.808;37.078;2023-05-20T05:55:17;8.63;;;1.65;;
70213;SDS011;60138;55.808;37.078;2023-05-20T05:57:43;3.30;;;1.65;;
70213;SDS011;60138;55.808;37.078;2023-05-20T06:00:12;6.50;;;2.55;;
70213;SDS011;60138;55.808;37.078;2023-05-20T06:02:46;8.23;;;1.77;;
70213;SDS011;60138;55.808;37.078;2023-05-20T06:05:21;3.70;;;1.90;;
70213;SDS011;60138;55.808;37.078;2023-05-20T06:07:47;4.72;;;2.17;;
70213;SDS011;60138;55.808;37.078;2023-05-20T06:10:13;7.60;;;2.00;;
70213;SDS011;60138;55.808;37.078;2023-05-20T06:12:39;9.35;;;2.67;;
70213;SDS011;60138;55.808;37.078;2023-05-20T06:15:05;6.03;;;2.25;;
70213;SDS011;60138;55.808;37.078;2023-05-20T06:17:31;4.20;;;2.00;;
70213;SDS011;60138;55.808;37.078;2023-05-20T06:19:57;3.90;;;2.17;;
70213;SDS011;60138;55.808;37.078;2023-05-20T06:22:23;11.30;;;3.13;;
70213;SDS011;60138;55.808;37.078;2023-05-20T06:24:49;3.73;;;1.87;;
70213;SDS011;60138;55.808;37.078;2023-05-20T06:27:15;3.58;;;1.80;;
70213;SDS011;60138;55.808;37.078;2023-05-20T06:29:41;7.20;;;2.40;;
70213;SDS011;60138;55.808;37.078;2023-05-20T06:32:07;6.40;;;2.38;;
70213;SDS011;60138;55.808;37.078;2023-05-20T06:34:33;16.73;;;2.73;;
70213;SDS011;60138;55.808;37.078;2023-05-20T06:36:59;10.32;;;3.08;;
70213;SDS011;60138;55.808;37.078;2023-05-20T06:39:25;14.10;;;3.60;;
70213;SDS011;60138;55.808;37.078;2023-05-20T06:41:51;4.83;;;2.10;;
70213;SDS011;60138;55.808;37.078;2023-05-20T06:44:26;4.20;;;2.20;;
70213;SDS011;60138;55.808;37.078;2023-05-20T06:47:00;5.13;;;2.55;;
70213;SDS011;60138;55.808;37.078;2023-05-20T06:49:26;4.25;;;2.20;;
70213;SDS011;60138;55.808;37.078;2023-05-20T06:51:53;2.73;;;1.50;;
70213;SDS011;60138;55.808;37.078;2023-05-20T06:54:19;6.38;;;2.08;;
70213;SDS011;60138;55.808;37.078;2023-05-20T06:56:45;6.97;;;2.30;;
70213;SDS011;60138;55.808;37.078;2023-05-20T06:59:12;7.68;;;2.10;;
70213;SDS011;60138;55.808;37.078;2023-05-20T07:01:38;11.40;;;2.38;;
70213;SDS011;60138;55.808;37.078;2023-05-20T07:04:04;9.35;;;2.38;;
70213;SDS011;60138;55.808;37.078;2023-05-20T07:06:31;12.25;;;2.10;;
70213;SDS011;60138;55.808;37.078;2023-05-20T07:08:57;6.57;;;2.78;;
70213;SDS011;60138;55.808;37.078;2023-05-20T07:11:24;13.95;;;2.85;;
70213;SDS011;60138;55.808;37.078;2023-05-20T07:13:49;4.30;;;2.27;;
70213;SDS011;60138;55.808;37.078;2023-05-20T07:16:16;7.10;;;3.08;;
70213;SDS011;60138;55.808;37.078;2023-05-20T07:18:47;13.10;;;2.58;;
70213;SDS011;60138;55.808;37.078;2023-05-20T07:21:12;4.53;;;2.50;;
70213;SDS011;60138;55.808;37.078;2023-05-20T07:23:58;3.95;;;2.05;;
70213;SDS011;60138;55.808;37.078;2023-05-20T07:26:24;11.93;;;3.38;;
70213;SDS011;60138;55.808;37.078;2023-05-20T07:28:49;12.27;;;2.57;;
70213;SDS011;60138;55.808;37.078;2023-05-20T07:31:15;6.07;;;2.15;;
70213;SDS011;60138;55.808;37.078;2023-05-20T07:33:43;10.65;;;2.67;;
70213;SDS011;60138;55.808;37.078;2023-05-20T07:36:09;7.43;;;1.90;;
70213;SDS011;60138;55.808;37.078;2023-05-20T07:38:37;13.82;;;2.47;;
70213;SDS011;60138;55.808;37.078;2023-05-20T07:41:06;3.25;;;2.15;;
70213;SDS011;60138;55.808;37.078;2023-05-20T07:43:32;3.50;;;1.83;;
70213;SDS011;60138;55.808;37.078;2023-05-20T07:46:01;7.18;;;2.38;;
70213;SDS011;60138;55.808;37.078;2023-05-20T07:48:27;5.20;;;1.70;;
70213;SDS011;60138;55.808;37.078;2023-05-20T07:50:53;9.00;;;2.20;;
70213;SDS011;60138;55.808;37.078;2023-05-20T07:53:19;8.25;;;2.13;;
70213;SDS011;60138;55.808;37.078;2023-05-20T07:55:45;4.40;;;2.50;;
70213;SDS011;60138;55.808;37.078;2023-05-20T07:58:11;3.85;;;1.98;;
70213;SDS011;60138;55.808;37.078;2023-05-20T08:00:37;4.38;;;2.00;;
70213;SDS011;60138;55.808;37.078;2023-05-20T08:03:06;4.85;;;2.25;;
70213;SDS011;60138;55.808;37.078;2023-05-20T08:05:52;7.22;;;2.30;;
70213;SDS011;60138;55.808;37.078;2023-05-20T08:08:18;6.10;;;2.23;;
70213;SDS011;60138;55.808;37.078;2023-05-20T08:10:52;6.97;;;2.25;;
70213;SDS011;60138;55.808;37.078;2023-05-20T08:13:22;3.45;;;2.05;;
70213;SDS011;60138;55.808;37.078;2023-05-20T08:15:48;4.85;;;2.30;;
70213;SDS011;60138;55.808;37.078;2023-05-20T08:18:16;6.47;;;1.80;;
70213;SDS011;60138;55.808;37.078;2023-05-20T08:20:42;12.80;;;2.65;;
70213;SDS011;60138;55.808;37.078;2023-05-20T08:23:08;4.63;;;1.95;;
70213;SDS011;60138;55.808;37.078;2023-05-20T08:25:34;4.17;;;2.10;;
70213;SDS011;60138;55.808;37.078;2023-05-20T08:28:00;4.00;;;2.00;;
70213;SDS011;60138;55.808;37.078;2023-05-20T08:30:26;2.95;;;1.50;;
70213;SDS011;60138;55.808;37.078;2023-05-20T08:32:52;4.00;;;1.97;;
70213;SDS011;60138;55.808;37.078;2023-05-20T08:35:19;5.82;;;2.33;;
70213;SDS011;60138;55.808;37.078;2023-05-20T08:37:44;3.15;;;1.88;;
70213;SDS011;60138;55.808;37.078;2023-05-20T08:40:11;16.73;;;2.70;;
70213;SDS011;60138;55.808;37.078;2023-05-20T08:42:39;5.22;;;1.90;;
70213;SDS011;60138;55.808;37.078;2023-05-20T08:45:12;9.05;;;2.40;;
70213;SDS011;60138;55.808;37.078;2023-05-20T08:47:42;2.83;;;1.80;;
70213;SDS011;60138;55.808;37.078;2023-05-20T08:50:08;4.45;;;1.60;;
70213;SDS011;60138;55.808;37.078;2023-05-20T08:52:36;3.83;;;1.60;;
70213;SDS011;60138;55.808;37.078;2023-05-20T08:55:06;3.70;;;2.17;;
70213;SDS011;60138;55.808;37.078;2023-05-20T08:57:36;4.57;;;1.70;;
70213;SDS011;60138;55.808;37.078;2023-05-20T09:00:02;5.77;;;1.83;;
70213;SDS011;60138;55.808;37.078;2023-05-20T09:02:30;2.97;;;1.58;;
70213;SDS011;60138;55.808;37.078;2023-05-20T09:04:56;3.63;;;1.77;;
70213;SDS011;60138;55.808;37.078;2023-05-20T09:07:25;3.57;;;1.87;;
70213;SDS011;60138;55.808;37.078;2023-05-20T09:09:52;4.13;;;1.90;;
70213;SDS011;60138;55.808;37.078;2023-05-20T09:12:18;6.38;;;3.40;;
70213;SDS011;60138;55.808;37.078;2023-05-20T09:14:45;2.72;;;1.70;;
70213;SDS011;60138;55.808;37.078;2023-05-20T09:17:11;3.33;;;1.85;;
70213;SDS011;60138;55.808;37.078;2023-05-20T09:19:37;4.97;;;1.75;;
70213;SDS011;60138;55.808;37.078;2023-05-20T09:22:03;4.43;;;1.83;;
70213;SDS011;60138;55.808;37.078;2023-05-20T09:24:29;4.07;;;1.90;;
70213;SDS011;60138;55.808;37.078;2023-05-20T09:26:55;2.55;;;1.67;;
70213;SDS011;60138;55.808;37.078;2023-05-20T09:29:21;5.30;;;1.67;;
70213;SDS011;60138;55.808;37.078;2023-05-20T09:31:48;4.35;;;1.50;;
70213;SDS011;60138;55.808;37.078;2023-05-20T09:34:14;6.23;;;1.80;;
70213;SDS011;60138;55.808;37.078;2023-05-20T09:36:41;4.20;;;2.05;;
70213;SDS011;60138;55.808;37.078;2023-05-20T09:39:09;4.00;;;1.50;;
70213;SDS011;60138;55.808;37.078;2023-05-20T09:41:41;2.22;;;1.60;;
70213;SDS011;60138;55.808;37.078;2023-05-20T09:44:10;4.53;;;2.50;;
70213;SDS011;60138;55.808;37.078;2023-05-20T09:46:36;4.87;;;2.17;;
70213;SDS011;60138;55.808;37.078;2023-05-20T09:49:03;4.35;;;2.17;;
70213;SDS011;60138;55.808;37.078;2023-05-20T09:51:29;4.75;;;2.42;;
70213;SDS011;60138;55.808;37.078;2023-05-20T09:53:55;3.90;;;2.13;;
70213;SDS011;60138;55.808;37.078;2023-05-20T09:56:22;13.88;;;2.85;;
70213;SDS011;60138;55.808;37.078;2023-05-20T09:58:49;2.87;;;1.50;;
70213;SDS011;60138;55.808;37.078;2023-05-20T10:01:17;4.68;;;2.10;;
70213;SDS011;60138;55.808;37.078;2023-05-20T10:03:42;4.38;;;1.77;;
70213;SDS011;60138;55.808;37.078;2023-05-20T10:11:18;3.80;;;1.70;;
70213;SDS011;60138;55.808;37.078;2023-05-20T10:22:00;13.25;;;2.70;;
70213;SDS011;60138;55.808;37.078;2023-05-20T10:24:30;6.05;;;1.60;;
70213;SDS011;60138;55.808;37.078;2023-05-20T10:26:58;7.88;;;2.30;;
70213;SDS011;60138;55.808;37.078;2023-05-20T10:29:25;7.50;;;2.00;;
70213;SDS011;60138;55.808;37.078;2023-05-20T10:31:51;9.07;;;1.83;;
70213;SDS011;60138;55.808;37.078;2023-05-20T10:34:18;5.88;;;1.75;;
70213;SDS011;60138;55.808;37.078;2023-05-20T10:37:06;4.43;;;1.75;;
70213;SDS011;60138;55.808;37.078;2023-05-20T10:39:31;4.38;;;1.90;;
70213;SDS011;60138;55.808;37.078;2023-05-20T10:42:08;6.95;;;2.50;;
70213;SDS011;60138;55.808;37.078;2023-05-20T10:47:06;6.40;;;2.17;;
70213;SDS011;60138;55.808;37.078;2023-05-20T10:49:32;5.00;;;1.70;;
70213;SDS011;60138;55.808;37.078;2023-05-20T10:51:59;3.45;;;2.22;;
70213;SDS011;60138;55.808;37.078;2023-05-20T10:54:24;4.20;;;1.90;;
70213;SDS011;60138;55.808;37.078;2023-05-20T10:56:53;3.43;;;1.50;;
70213;SDS011;60138;55.808;37.078;2023-05-20T10:59:20;4.45;;;2.03;;
70213;SDS011;60138;55.808;37.078;2023-05-20T11:01:46;6.28;;;2.03;;
70213;SDS011;60138;55.808;37.078;2023-05-20T11:04:13;5.38;;;2.10;;
70213;SDS011;60138;55.808;37.078;2023-05-20T11:06:48;4.83;;;1.80;;
70213;SDS011;60138;55.808;37.078;2023-05-20T11:09:15;3.85;;;1.70;;
70213;SDS011;60138;55.808;37.078;2023-05-20T11:11:41;3.72;;;2.03;;
70213;SDS011;60138;55.808;37.078;2023-05-20T11:14:08;6.27;;;1.80;;
70213;SDS011;60138;55.808;37.078;2023-05-20T11:16:34;13.10;;;2.03;;
70213;SDS011;60138;55.808;37.078;2023-05-20T11:19:00;10.63;;;2.80;;
70213;SDS011;60138;55.808;37.078;2023-05-20T11:21:26;7.13;;;2.13;;
70213;SDS011;60138;55.808;37.078;2023-05-20T11:23:51;3.55;;;1.85;;
70213;SDS011;60138;55.808;37.078;2023-05-20T11:26:17;4.63;;;1.83;;
70213;SDS011;60138;55.808;37.078;2023-05-20T11:28:43;3.70;;;1.75;;
70213;SDS011;60138;55.808;37.078;2023-05-20T11:31:08;6.70;;;2.10;;
70213;SDS011;60138;55.808;37.078;2023-05-20T11:33:34;6.72;;;1.90;;
70213;SDS011;60138;55.808;37.078;2023-05-20T11:36:00;5.67;;;2.40;;
70213;SDS011;60138;55.808;37.078;2023-05-20T11:38:27;3.97;;;2.13;;
70213;SDS011;60138;55.808;37.078;2023-05-20T11:40:54;6.97;;;2.85;;
70213;SDS011;60138;55.808;37.078;2023-05-20T11:43:21;5.80;;;2.78;;
70213;SDS011;60138;55.808;37.078;2023-05-20T11:45:52;5.53;;;2.70;;
70213;SDS011;60138;55.808;37.078;2023-05-20T11:48:22;5.77;;;2.20;;
70213;SDS011;60138;55.808;37.078;2023-05-20T11:50:48;4.88;;;2.30;;
70213;SDS011;60138;55.808;37.078;2023-05-20T11:53:17;5.82;;;2.22;;
70213;SDS011;60138;55.808;37.078;2023-05-20T11:55:45;6.25;;;2.22;;
70213;SDS011;60138;55.808;37.078;2023-05-20T11:58:21;4.33;;;2.10;;
70213;SDS011;60138;55.808;37.078;2023-05-20T12:00:49;5.28;;;2.60;;
70213;SDS011;60138;55.808;37.078;2023-05-20T12:03:15;4.25;;;2.10;;
70213;SDS011;60138;55.808;37.078;2023-05-20T12:05:41;7.95;;;2.58;;
70213;SDS011;60138;55.808;37.078;2023-05-20T12:08:07;6.47;;;1.90;;
70213;SDS011;60138;55.808;37.078;2023-05-20T12:10:32;13.00;;;2.95;;
70213;SDS011;60138;55.808;37.078;2023-05-20T12:12:58;3.75;;;2.45;;
70213;SDS011;60138;55.808;37.078;2023-05-20T12:15:24;5.82;;;1.95;;
70213;SDS011;60138;55.808;37.078;2023-05-20T12:17:51;5.63;;;2.60;;
70213;SDS011;60138;55.808;37.078;2023-05-20T12:20:20;5.88;;;1.83;;
70213;SDS011;60138;55.808;37.078;2023-05-20T12:22:46;12.48;;;2.03;;
70213;SDS011;60138;55.808;37.078;2023-05-20T12:25:13;2.95;;;1.65;;
70213;SDS011;60138;55.808;37.078;2023-05-20T12:27:41;3.17;;;1.70;;
70213;SDS011;60138;55.808;37.078;2023-05-20T12:30:08;4.40;;;1.97;;
70213;SDS011;60138;55.808;37.078;2023-05-20T12:32:35;3.88;;;1.83;;
70213;SDS011;60138;55.808;37.078;2023-05-20T12:35:02;4.97;;;2.17;;
70213;SDS011;60138;55.808;37.078;2023-05-20T12:37:30;4.07;;;2.30;;
70213;SDS011;60138;55.808;37.078;2023-05-20T12:39:56;5.00;;;2.20;;
70213;SDS011;60138;55.808;37.078;2023-05-20T12:42:23;11.10;;;2.58;;
70213;SDS011;60138;55.808;37.078;2023-05-20T12:44:49;5.00;;;1.90;;
70213;SDS011;60138;55.808;37.078;2023-05-20T12:47:15;8.13;;;3.47;;
70213;SDS011;60138;55.808;37.078;2023-05-20T12:49:40;5.37;;;1.90;;
70213;SDS011;60138;55.808;37.078;2023-05-20T12:52:06;4.18;;;1.90;;
70213;SDS011;60138;55.808;37.078;2023-05-20T12:54:32;7.37;;;2.20;;
70213;SDS011;60138;55.808;37.078;2023-05-20T12:56:58;6.53;;;1.95;;
70213;SDS011;60138;55.808;37.078;2023-05-20T12:59:24;3.70;;;2.00;;
70213;SDS011;60138;55.808;37.078;2023-05-20T13:01:49;8.77;;;3.50;;
70213;SDS011;60138;55.808;37.078;2023-05-20T13:04:15;4.22;;;2.30;;
70213;SDS011;60138;55.808;37.078;2023-05-20T13:06:41;4.47;;;2.80;;
70213;SDS011;60138;55.808;37.078;2023-05-20T13:09:07;3.42;;;1.73;;
70213;SDS011;60138;55.808;37.078;2023-05-20T13:11:33;6.10;;;2.40;;
70213;SDS011;60138;55.808;37.078;2023-05-20T13:13:59;8.90;;;3.50;;
70213;SDS011;60138;55.808;37.078;2023-05-20T13:16:24;5.68;;;2.95;;
70213;SDS011;60138;55.808;37.078;2023-05-20T13:18:50;7.20;;;3.40;;
70213;SDS011;60138;55.808;37.078;2023-05-20T13:21:16;4.45;;;2.50;;
70213;SDS011;60138;55.808;37.078;2023-05-20T13:23:42;8.02;;;3.83;;
70213;SDS011;60138;55.808;37.078;2023-05-20T13:26:08;6.27;;;2.30;;
70213;SDS011;60138;55.808;37.078;2023-05-20T13:28:34;8.55;;;3.08;;
70213;SDS011;60138;55.808;37.078;2023-05-20T13:31:04;6.10;;;2.70;;
70213;SDS011;60138;55.808;37.078;2023-05-20T13:33:30;12.07;;;3.30;;
70213;SDS011;60138;55.808;37.078;2023-05-20T13:35:56;6.78;;;2.50;;
70213;SDS011;60138;55.808;37.078;2023-05-20T13:38:22;5.55;;;2.90;;
70213;SDS011;60138;55.808;37.078;2023-05-20T13:40:48;5.90;;;2.90;;
70213;SDS011;60138;55.808;37.078;2023-05-20T13:43:14;5.28;;;3.00;;
70213;SDS011;60138;55.808;37.078;2023-05-20T13:45:40;7.30;;;2.95;;
70213;SDS011;60138;55.808;37.078;2023-05-20T13:48:06;4.63;;;2.33;;
70213;SDS011;60138;55.808;37.078;2023-05-20T13:50:32;6.17;;;2.13;;
70213;SDS011;60138;55.808;37.078;2023-05-20T13:52:58;6.47;;;2.47;;
70213;SDS011;60138;55.808;37.078;2023-05-20T13:55:24;5.80;;;2.40;;
70213;SDS011;60138;55.808;37.078;2023-05-20T13:57:49;8.23;;;2.10;;
70213;SDS011;60138;55.808;37.078;2023-05-20T14:00:15;4.53;;;2.43;;
70213;SDS011;60138;55.808;37.078;2023-05-20T14:02:41;7.70;;;2.50;;
70213;SDS011;60138;55.808;37.078;2023-05-20T14:05:06;7.23;;;3.23;;
70213;SDS011;60138;55.808;37.078;2023-05-20T14:07:32;9.95;;;2.72;;
70213;SDS011;60138;55.808;37.078;2023-05-20T14:09:58;5.30;;;2.63;;
70213;SDS011;60138;55.808;37.078;2023-05-20T14:12:24;5.85;;;2.60;;
70213;SDS011;60138;55.808;37.078;2023-05-20T14:14:50;4.53;;;2.22;;
70213;SDS011;60138;55.808;37.078;2023-05-20T14:17:15;5.03;;;2.50;;
70213;SDS011;60138;55.808;37.078;2023-05-20T14:19:41;17.65;;;11.02;;
70213;SDS011;60138;55.808;37.078;2023-05-20T14:22:07;94.57;;;51.90;;
70213;SDS011;60138;55.808;37.078;2023-05-20T14:24:32;111.57;;;58.63;;
70213;SDS011;60138;55.808;37.078;2023-05-20T14:26:58;26.52;;;16.67;;
70213;SDS011;60138;55.808;37.078;2023-05-20T14:29:24;9.00;;;6.00;;
70213;SDS011;60138;55.808;37.078;2023-05-20T14:31:49;19.63;;;11.90;;
70213;SDS011;60138;55.808;37.078;2023-05-20T14:34:15;22.50;;;11.90;;
70213;SDS011;60138;55.808;37.078;2023-05-20T14:36:41;5.22;;;2.95;;
70213;SDS011;60138;55.808;37.078;2023-05-20T14:39:07;8.77;;;2.42;;
70213;SDS011;60138;55.808;37.078;2023-05-20T14:41:32;4.65;;;2.80;;
70213;SDS011;60138;55.808;37.078;2023-05-20T14:43:58;8.83;;;2.90;;
70213;SDS011;60138;55.808;37.078;2023-05-20T14:46:24;4.60;;;2.33;;
70213;SDS011;60138;55.808;37.078;2023-05-20T14:48:50;9.13;;;3.58;;